createdAt,value
2022-09-27T00:00:02.904Z,78.3
2022-09-27T00:03:03.139Z,78.3
2022-09-27T00:06:02.976Z,78.3
2022-09-27T00:09:02.912Z,78.3
2022-09-27T00:12:02.980Z,78.3
2022-09-27T00:15:03.015Z,78.3
2022-09-27T00:18:02.920Z,78.6
2022-09-27T00:21:02.952Z,78.6
2022-09-27T00:24:02.921Z,78.6
2022-09-27T00:27:02.940Z,78.6
2022-09-27T00:30:02.944Z,78.6
2022-09-27T00:33:02.946Z,78.6
2022-09-27T00:36:02.928Z,78.6
2022-09-27T00:39:03.855Z,78.6
2022-09-27T00:42:02.946Z,78.6
2022-09-27T00:45:02.910Z,79.2
2022-09-27T00:48:03.083Z,79.2
2022-09-27T00:51:03.053Z,79.2
2022-09-27T00:54:03.023Z,79.2
2022-09-27T00:57:02.983Z,79.2
2022-09-27T01:00:02.936Z,79.2
2022-09-27T01:03:03.219Z,79.2
2022-09-27T01:06:02.882Z,79.2
2022-09-27T01:09:02.963Z,79.2
2022-09-27T01:12:02.908Z,79.2
2022-09-27T01:15:02.964Z,79.2
2022-09-27T01:18:02.952Z,79.2
2022-09-27T01:21:03.139Z,79.2
2022-09-27T01:24:02.937Z,79.2
2022-09-27T01:27:02.903Z,79.2
2022-09-27T01:30:02.907Z,79.2
2022-09-27T01:33:02.901Z,79.2
2022-09-27T01:36:02.978Z,79.2
2022-09-27T01:39:02.971Z,79.2
2022-09-27T01:42:02.942Z,79.2
2022-09-27T01:45:02.851Z,79.2
2022-09-27T01:48:03.002Z,79.2
2022-09-27T01:51:02.916Z,79.2
2022-09-27T01:54:02.966Z,80.8
2022-09-27T01:57:02.932Z,80.8
2022-09-27T02:00:02.948Z,80.8
2022-09-27T02:03:03.171Z,80.9
2022-09-27T02:06:02.937Z,80.9
2022-09-27T02:09:02.911Z,80.9
2022-09-27T02:12:02.905Z,80.9
2022-09-27T02:15:02.938Z,80.9
2022-09-27T02:18:03.017Z,80.9
2022-09-27T02:21:02.886Z,80.9
2022-09-27T02:24:03.049Z,80.9
2022-09-27T02:27:02.948Z,81.3
2022-09-27T02:30:02.967Z,81.3
2022-09-27T02:33:02.948Z,81.3
2022-09-27T02:36:03.023Z,81.3
2022-09-27T02:39:02.956Z,81.3
2022-09-27T02:42:02.929Z,81.3
2022-09-27T02:45:02.892Z,81.3
2022-09-27T02:48:02.920Z,81.3
2022-09-27T02:51:02.876Z,81.3
2022-09-27T02:54:02.946Z,81.3
2022-09-27T02:57:02.922Z,81.4
2022-09-27T03:00:02.986Z,81.4
2022-09-27T03:03:03.094Z,81.4
2022-09-27T03:06:02.918Z,81.4
2022-09-27T03:09:02.918Z,81.4
2022-09-27T03:12:02.958Z,81.4
2022-09-27T03:15:02.906Z,81.4
2022-09-27T03:18:03.022Z,81.4
2022-09-27T03:21:02.927Z,81.4
2022-09-27T03:24:02.921Z,81.4
2022-09-27T03:27:02.999Z,81.4
2022-09-27T03:30:02.983Z,81.4
2022-09-27T03:33:02.993Z,82.6
2022-09-27T03:36:02.943Z,82.6
2022-09-27T03:39:02.957Z,82.6
2022-09-27T03:42:02.901Z,82.6
2022-09-27T03:45:02.933Z,82.6
2022-09-27T03:48:02.991Z,82.6
2022-09-27T03:51:02.997Z,82.6
2022-09-27T03:54:02.954Z,83.1
2022-09-27T03:57:02.905Z,83.1
2022-09-27T04:00:03.015Z,83.1
2022-09-27T04:03:02.963Z,83.1
2022-09-27T04:06:02.955Z,83.1
2022-09-27T04:09:02.978Z,83.1
2022-09-27T04:12:02.948Z,83.1
2022-09-27T04:15:03.119Z,83.1
2022-09-27T04:18:02.888Z,83.1
2022-09-27T04:21:02.911Z,83.1
2022-09-27T04:24:02.939Z,83.1
2022-09-27T04:27:02.980Z,83.1
2022-09-27T04:30:03.032Z,83.1
2022-09-27T04:33:02.926Z,83.1
2022-09-27T04:36:02.952Z,83.1
2022-09-27T04:39:02.928Z,83.1
2022-09-27T04:42:02.947Z,83.1
2022-09-27T04:45:02.939Z,83.1
2022-09-27T04:48:02.891Z,83.2
2022-09-27T04:51:02.925Z,83.2
2022-09-27T04:54:02.935Z,83.2
2022-09-27T04:57:02.879Z,83.2
2022-09-27T05:00:02.945Z,83.2
2022-09-27T05:03:03.163Z,83.2
2022-09-27T05:06:02.929Z,83.2
2022-09-27T05:09:02.961Z,83.2
2022-09-27T05:12:03.038Z,83.2
2022-09-27T05:15:02.927Z,83.2
2022-09-27T05:18:03.008Z,83.2
2022-09-27T05:21:03.471Z,83.2
2022-09-27T05:24:03.035Z,83.2
2022-09-27T05:27:02.910Z,83.2
2022-09-27T05:30:03.204Z,83.2
2022-09-27T05:33:02.904Z,83.2
2022-09-27T05:36:03.021Z,83.2
2022-09-27T05:39:02.956Z,83.7
2022-09-27T05:42:02.956Z,83.7
2022-09-27T05:45:03.031Z,84.2
2022-09-27T05:48:02.976Z,84.2
2022-09-27T05:51:02.917Z,84.2
2022-09-27T05:54:02.922Z,84.2
2022-09-27T05:57:03.022Z,84.2
2022-09-27T06:00:03.032Z,84.2
2022-09-27T06:03:03.263Z,84.2
2022-09-27T06:06:02.945Z,84.2
2022-09-27T06:12:02.981Z,84.8
2022-09-27T06:15:02.940Z,84.8
2022-09-27T06:18:02.978Z,84.8
2022-09-27T06:21:02.969Z,84.8
2022-09-27T06:24:02.930Z,84.8
2022-09-27T06:27:02.912Z,84.8
2022-09-27T06:30:03.022Z,84.7
2022-09-27T06:33:02.952Z,84.7
2022-09-27T06:36:02.972Z,84.2
2022-09-27T06:39:02.957Z,84.2
2022-09-27T06:42:03.043Z,84.2
2022-09-27T06:45:02.938Z,84.2
2022-09-27T06:48:02.985Z,84.2
2022-09-27T06:51:02.932Z,84.2
2022-09-27T06:54:02.949Z,84.2
2022-09-27T06:57:05.170Z,84.7
2022-09-27T07:00:03.024Z,84.7
2022-09-27T07:03:02.921Z,84.7
2022-09-27T07:06:02.959Z,84.7
2022-09-27T07:09:03.029Z,84.7
2022-09-27T07:12:02.978Z,84.7
2022-09-27T07:15:03.028Z,84.7
2022-09-27T07:18:02.929Z,84.7
2022-09-27T07:21:03.115Z,84.7
2022-09-27T07:24:03.058Z,85.5
2022-09-27T07:27:02.945Z,85.5
2022-09-27T07:30:03.057Z,85.5
2022-09-27T07:33:02.960Z,85.5
2022-09-27T07:36:02.948Z,85.5
2022-09-27T07:39:02.960Z,85.5
2022-09-27T07:42:02.926Z,85.5
2022-09-27T07:45:06.161Z,85.5
2022-09-27T07:48:02.906Z,85.5
2022-09-27T07:51:02.998Z,85.5
2022-09-27T07:54:10.805Z,85.5
2022-09-27T07:57:02.961Z,85.9
2022-09-27T08:00:03.007Z,85.9
2022-09-27T08:03:02.927Z,85.9
2022-09-27T08:06:03.054Z,85.9
2022-09-27T08:09:03.025Z,85.9
2022-09-27T08:12:02.963Z,85.9
2022-09-27T08:15:02.956Z,85.9
2022-09-27T08:18:02.910Z,85.9
2022-09-27T08:21:02.985Z,85.9
2022-09-27T08:24:02.972Z,86.5
2022-09-27T08:27:02.983Z,86.5
2022-09-27T08:30:03.046Z,86.4
2022-09-27T08:33:03.072Z,86.4
2022-09-27T08:36:02.923Z,86.4
2022-09-27T08:39:02.973Z,86.4
2022-09-27T08:42:03.019Z,85.8
2022-09-27T08:45:06.244Z,85.8
2022-09-27T08:48:02.984Z,85.8
2022-09-27T08:51:02.938Z,85.8
2022-09-27T08:54:03.022Z,85.8
2022-09-27T08:57:02.964Z,85.8
2022-09-27T09:00:03.004Z,85.8
2022-09-27T09:03:02.964Z,85.8
2022-09-27T09:06:03.024Z,85.9
2022-09-27T09:09:02.952Z,85.9
2022-09-27T09:12:02.962Z,85.9
2022-09-27T09:15:02.908Z,85.9
2022-09-27T09:18:03.045Z,85.9
2022-09-27T09:21:02.966Z,85.9
2022-09-27T09:24:03.020Z,85.8
2022-09-27T09:27:02.945Z,85.8
2022-09-27T09:30:02.982Z,85.8
2022-09-27T09:33:02.966Z,86.2
2022-09-27T09:36:02.986Z,86.2
2022-09-27T09:39:02.975Z,86.2
2022-09-27T09:42:03.034Z,86.2
2022-09-27T09:45:02.934Z,86.2
2022-09-27T09:48:03.033Z,86.2
2022-09-27T09:51:02.961Z,86.2
2022-09-27T09:54:02.909Z,84.8
2022-09-27T09:57:03.002Z,84.8
2022-09-27T10:00:03.012Z,84.8
2022-09-27T10:03:02.973Z,84.8
2022-09-27T10:06:02.957Z,84.8
2022-09-27T10:09:03.007Z,84.8
2022-09-27T10:12:02.973Z,84.8
2022-09-27T10:15:03.156Z,84.8
2022-09-27T10:18:02.988Z,84.8
2022-09-27T10:21:02.963Z,84.7
2022-09-27T10:24:02.952Z,84.7
2022-09-27T10:27:03.000Z,84.7
2022-09-27T10:30:03.035Z,84.7
2022-09-27T10:33:02.942Z,84.7
2022-09-27T10:36:02.991Z,84.7
2022-09-27T10:39:03.081Z,84.7
2022-09-27T10:42:03.014Z,84.7
2022-09-27T10:45:02.979Z,84.7
2022-09-27T10:48:02.971Z,84.7
2022-09-27T10:51:03.136Z,84.7
2022-09-27T10:54:02.971Z,80.8
2022-09-27T10:57:02.965Z,80.8
2022-09-27T11:00:02.986Z,80.8
2022-09-27T11:03:02.906Z,80.8
2022-09-27T11:06:02.903Z,80.8
2022-09-27T11:09:02.965Z,80.8
2022-09-27T11:12:03.011Z,80.8
2022-09-27T11:15:02.980Z,80.8
2022-09-27T11:18:02.992Z,80.8
2022-09-27T11:21:02.979Z,80.7
2022-09-27T11:24:03.065Z,80.7
2022-09-27T11:27:02.941Z,80.7
2022-09-27T11:30:02.956Z,79
2022-09-27T11:33:02.952Z,79
2022-09-27T11:36:02.991Z,79
2022-09-27T11:39:05.268Z,79
2022-09-27T11:42:02.993Z,79
2022-09-27T11:46:10.631Z,79
2022-09-27T11:48:03.459Z,79
2022-09-27T11:51:02.916Z,79
2022-09-27T11:54:02.962Z,75.8
2022-09-27T11:57:03.038Z,75.8
2022-09-27T12:00:02.964Z,75.8
2022-09-27T12:03:03.093Z,75.8
2022-09-27T12:06:09.701Z,75.8
2022-09-27T12:09:02.974Z,75.8
2022-09-27T12:12:02.925Z,75.8
2022-09-27T12:15:09.655Z,75.8
2022-09-27T12:18:02.977Z,73.1
2022-09-27T12:21:03.031Z,73.1
2022-09-27T12:24:02.972Z,73.1
2022-09-27T12:27:03.056Z,73.1
2022-09-27T12:30:03.054Z,71.1
2022-09-27T12:33:03.015Z,71.1
2022-09-27T12:36:03.009Z,71.1
2022-09-27T12:39:02.927Z,71.1
2022-09-27T12:42:03.013Z,71.1
2022-09-27T12:45:03.038Z,71.1
2022-09-27T12:48:02.978Z,71.1
2022-09-27T12:51:02.973Z,71.1
2022-09-27T12:54:03.021Z,70.1
2022-09-27T12:57:02.965Z,70.1
2022-09-27T13:00:03.066Z,70.1
2022-09-27T13:03:25.207Z,70.1
2022-09-27T13:06:02.967Z,70.1
2022-09-27T13:09:02.975Z,70.1
2022-09-27T13:12:02.939Z,70.1
2022-09-27T13:15:03.024Z,70.1
2022-09-27T13:18:02.978Z,69.2
2022-09-27T13:21:02.973Z,69.2
2022-09-27T13:24:02.958Z,69.7
2022-09-27T13:27:03.016Z,69.7
2022-09-27T13:30:03.024Z,69.7
2022-09-27T13:33:02.937Z,69.7
2022-09-27T13:36:02.967Z,69.7
2022-09-27T13:39:02.983Z,72
2022-09-27T13:42:02.942Z,72
2022-09-27T13:45:02.968Z,72
2022-09-27T13:48:02.907Z,72
2022-09-27T13:51:02.963Z,72
2022-09-27T13:54:05.521Z,72
2022-09-27T13:57:02.925Z,72
2022-09-27T14:00:03.010Z,72
2022-09-27T14:03:02.943Z,72
2022-09-27T14:06:08.703Z,72
2022-09-27T14:09:03.008Z,71
2022-09-27T14:12:03.078Z,71
2022-09-27T14:15:03.222Z,71
2022-09-27T14:18:02.921Z,71
2022-09-27T14:21:02.935Z,71
2022-09-27T14:24:02.983Z,71.7
2022-09-27T14:27:03.039Z,71.7
2022-09-27T14:30:03.096Z,71.7
2022-09-27T14:33:02.995Z,71.7
2022-09-27T14:36:02.970Z,71.7
2022-09-27T14:39:03.007Z,71.7
2022-09-27T14:42:02.956Z,71.7
2022-09-27T14:45:03.081Z,71.7
2022-09-27T14:48:02.913Z,71.7
2022-09-27T14:51:14.002Z,71.7
2022-09-27T14:54:02.964Z,71.7
2022-09-27T14:57:02.955Z,71.2
2022-09-27T15:00:02.981Z,71.2
2022-09-27T15:03:03.485Z,74.9
2022-09-27T15:06:03.019Z,76.6
2022-09-27T15:09:02.996Z,76.6
2022-09-27T15:12:03.052Z,77.4
2022-09-27T15:15:02.943Z,77.4
2022-09-27T15:18:02.998Z,77.4
2022-09-27T15:21:02.920Z,77.4
2022-09-27T15:24:03.038Z,78.8
2022-09-27T15:27:02.976Z,78.8
2022-09-27T15:30:03.057Z,78.8
2022-09-27T15:33:02.985Z,78.8
2022-09-27T15:36:03.002Z,78.8
2022-09-27T15:39:06.473Z,79.7
2022-09-27T15:42:02.937Z,79.7
2022-09-27T15:45:02.987Z,79.7
2022-09-27T15:48:03.066Z,79.7
2022-09-27T15:51:02.946Z,79.7
2022-09-27T15:54:02.994Z,79.7
2022-09-27T15:57:02.918Z,79.7
2022-09-27T16:00:03.033Z,79.7
2022-09-27T16:03:03.000Z,79.7
2022-09-27T16:06:02.959Z,81.1
2022-09-27T16:09:03.009Z,81.1
2022-09-27T16:12:03.034Z,81.1
2022-09-27T16:15:02.943Z,81.3
2022-09-27T16:18:03.029Z,81.3
2022-09-27T16:21:02.979Z,81.3
2022-09-27T16:24:08.676Z,81.3
2022-09-27T16:27:02.993Z,81.3
2022-09-27T16:30:02.958Z,81.3
2022-09-27T16:33:02.954Z,81.3
2022-09-27T16:36:02.955Z,81.3
2022-09-27T16:39:03.002Z,81.3
2022-09-27T16:42:03.003Z,81.3
2022-09-27T16:45:06.111Z,81.3
2022-09-27T16:48:02.922Z,81.3
2022-09-27T16:51:03.011Z,81.3
2022-09-27T16:54:02.940Z,81.3
2022-09-27T16:57:02.900Z,81.3
2022-09-27T17:00:03.032Z,81.3
2022-09-27T17:03:02.920Z,82.6
2022-09-27T17:06:02.985Z,82.6
2022-09-27T17:09:02.943Z,82.6
2022-09-27T17:12:02.975Z,82.6
2022-09-27T17:15:02.980Z,82.6
2022-09-27T17:18:02.987Z,82.6
2022-09-27T17:21:02.936Z,82.6
2022-09-27T17:24:02.906Z,82.6
2022-09-27T17:27:02.905Z,82.6
2022-09-27T17:30:02.989Z,82.6
2022-09-27T17:33:02.961Z,82.5
2022-09-27T17:36:02.942Z,82.5
2022-09-27T17:39:02.934Z,82.5
2022-09-27T17:42:02.917Z,82.5
2022-09-27T17:45:02.941Z,82.5
2022-09-27T17:48:02.921Z,82.5
2022-09-27T17:51:03.005Z,82.5
2022-09-27T17:54:02.993Z,82.5
2022-09-27T17:57:02.920Z,82.5
2022-09-27T18:00:03.018Z,82.4
2022-09-27T18:03:03.101Z,82.4
2022-09-27T18:06:02.965Z,82.4
2022-09-27T18:09:02.999Z,82.4
2022-09-27T18:12:02.911Z,82.4
2022-09-27T18:15:02.928Z,82.4
2022-09-27T18:18:02.915Z,82.4
2022-09-27T18:21:03.011Z,82.6
2022-09-27T18:24:02.996Z,82.6
2022-09-27T18:27:02.973Z,82.6
2022-09-27T18:30:02.937Z,82.6
2022-09-27T18:33:02.863Z,82.6
2022-09-27T18:36:02.844Z,82.6
2022-09-27T18:39:02.939Z,82.6
2022-09-27T18:42:02.959Z,82.6
2022-09-27T18:45:02.904Z,82.6
2022-09-27T18:48:03.016Z,82.6
2022-09-27T18:51:02.946Z,82.6
2022-09-27T18:54:02.974Z,83.5
2022-09-27T18:57:03.030Z,83.5
2022-09-27T19:00:02.935Z,83.5
2022-09-27T19:03:03.026Z,83.5
2022-09-27T19:06:02.955Z,83.5
2022-09-27T19:09:02.997Z,83.5
2022-09-27T19:12:02.919Z,83.5
2022-09-27T19:15:02.923Z,83.5
2022-09-27T19:18:02.965Z,83.5
2022-09-27T19:21:05.114Z,83.5
2022-09-27T19:24:02.942Z,83.5
2022-09-27T19:27:02.935Z,83.5
2022-09-27T19:30:03.025Z,83.5
2022-09-27T19:33:02.913Z,83.5
2022-09-27T19:36:02.938Z,83.5
2022-09-27T19:39:02.941Z,83.5
2022-09-27T19:42:02.880Z,83.5
2022-09-27T19:45:03.243Z,83.5
2022-09-27T19:48:02.902Z,83.5
2022-09-27T19:51:02.981Z,84.1
2022-09-27T19:54:02.998Z,84.1
2022-09-27T19:57:03.014Z,84.1
2022-09-27T20:00:02.960Z,84.1
2022-09-27T20:03:03.161Z,84.1
2022-09-27T20:06:02.951Z,84.1
2022-09-27T20:09:03.076Z,84.1
2022-09-27T20:12:02.919Z,84.1
2022-09-27T20:15:02.913Z,84.1
2022-09-27T20:18:05.880Z,84.1
2022-09-27T20:21:02.978Z,84.1
2022-09-27T20:24:02.899Z,84.1
2022-09-27T20:27:02.958Z,84.1
2022-09-27T20:30:02.978Z,84.1
2022-09-27T20:33:02.910Z,84.1
2022-09-27T20:36:02.950Z,84.1
2022-09-27T20:39:05.732Z,84.1
2022-09-27T20:42:02.923Z,84
2022-09-27T20:45:03.054Z,84
2022-09-27T20:48:02.965Z,84
2022-09-27T20:51:07.374Z,84
2022-09-27T20:54:03.025Z,84
2022-09-27T20:57:02.902Z,84
2022-09-27T21:00:03.013Z,84
2022-09-27T21:03:02.878Z,84
2022-09-27T21:06:02.939Z,84
2022-09-27T21:09:02.983Z,84
2022-09-27T21:12:02.898Z,84
2022-09-27T21:15:02.943Z,84
2022-09-27T21:18:02.926Z,84
2022-09-27T21:21:02.952Z,84
2022-09-27T21:24:02.918Z,84
2022-09-27T21:27:02.941Z,84
2022-09-27T21:30:02.959Z,84
2022-09-27T21:33:03.004Z,84.7
2022-09-27T21:36:02.945Z,84.7
2022-09-27T21:39:02.944Z,84.7
2022-09-27T21:42:02.958Z,84.7
2022-09-27T21:45:02.906Z,84.7
2022-09-27T21:48:02.932Z,84.7
2022-09-27T21:51:02.939Z,84.7
2022-09-27T21:54:02.953Z,84.7
2022-09-27T21:57:02.911Z,84.7
2022-09-27T22:00:03.182Z,84.7
2022-09-27T22:03:02.960Z,84.7
2022-09-27T22:06:02.938Z,84.7
2022-09-27T22:09:02.952Z,84.7
2022-09-27T22:12:02.900Z,84.7
2022-09-27T22:15:03.057Z,84.7
2022-09-27T22:18:02.927Z,84.7
2022-09-27T22:21:03.004Z,84.7
2022-09-27T22:24:09.883Z,84.7
2022-09-27T22:27:02.924Z,84.8
2022-09-27T22:30:03.027Z,84.8
2022-09-27T22:33:02.914Z,84.8
2022-09-27T22:36:03.037Z,84.8
2022-09-27T22:39:03.013Z,84.8
2022-09-27T22:42:02.925Z,84.8
2022-09-27T22:45:03.017Z,84.8
2022-09-27T22:48:02.906Z,84.8
2022-09-27T22:51:02.953Z,84.8
2022-09-27T22:54:03.013Z,84.8
2022-09-27T22:57:02.925Z,84.8
2022-09-27T23:00:03.163Z,84.8
2022-09-27T23:03:02.912Z,84.8
2022-09-27T23:06:02.916Z,84.8
2022-09-27T23:09:02.944Z,84.8
2022-09-27T23:12:02.985Z,84.8
2022-09-27T23:15:02.962Z,84.3
2022-09-27T23:18:02.930Z,84.3
2022-09-27T23:21:02.946Z,84.3
2022-09-27T23:24:02.965Z,84.2
2022-09-27T23:27:02.935Z,84.2
2022-09-27T23:30:02.966Z,84.2
2022-09-27T23:33:02.911Z,84.2
2022-09-27T23:36:03.027Z,84.2
2022-09-27T23:39:02.889Z,84.2
2022-09-27T23:42:02.964Z,84.2
2022-09-27T23:45:03.047Z,84.2
2022-09-27T23:48:02.932Z,84.2
2022-09-27T23:51:02.956Z,84.2
2022-09-27T23:54:03.267Z,84.2
2022-09-27T23:57:02.879Z,84.2
